Time;durP1;ratioP1;P1;durP2;ratioP2;P2;SDS_P1;SDS_P2;PMS_P1;PMS_P2;Temp;Humidity;BMP_temperature;BMP_pressure;BME280_temperature;BME280_humidity;BME280_pressure;Samples;Min_cycle;Max_cycle;Signal;HPM_P1;HPM_P2
2022/12/21 00:01:22;;;;;;;4.30;3.70;;;10.30;99.90;;;;;;5054631;28;20272;-49
2022/12/21 00:03:59;;;;;;;6.40;3.25;;;10.20;99.90;;;;;;5055332;28;20533;-50
2022/12/21 00:06:27;;;;;;;4.13;3.17;;;10.20;99.90;;;;;;5055146;28;20170;-49
2022/12/21 00:08:55;;;;;;;7.85;3.95;;;10.30;99.90;;;;;;5055066;28;20186;-51
2022/12/21 00:11:23;;;;;;;5.90;4.13;;;10.40;99.90;;;;;;5055272;28;20173;-49
2022/12/21 00:13:50;;;;;;;5.03;3.50;;;10.30;99.90;;;;;;5054801;28;20210;-50
2022/12/21 00:16:19;;;;;;;5.38;4.05;;;10.30;99.90;;;;;;5053615;28;20258;-47
2022/12/21 00:18:45;;;;;;;4.68;3.50;;;10.30;99.90;;;;;;5054873;28;20163;-49
2022/12/21 00:21:21;;;;;;;5.68;3.83;;;10.30;99.90;;;;;;5055553;28;20193;-52
2022/12/21 00:23:49;;;;;;;7.13;4.13;;;10.40;99.90;;;;;;5054795;28;20201;-49
2022/12/21 00:26:18;;;;;;;7.30;4.90;;;10.20;99.90;;;;;;5054811;28;20167;-52
2022/12/21 00:28:43;;;;;;;4.60;4.15;;;10.30;99.90;;;;;;5054862;28;20174;-43
2022/12/21 00:31:14;;;;;;;6.43;3.95;;;10.30;99.90;;;;;;5055384;28;20240;-43
2022/12/21 00:33:41;;;;;;;5.88;4.28;;;10.30;99.90;;;;;;5054910;28;20194;-45
2022/12/21 00:36:10;;;;;;;6.20;4.20;;;10.20;99.90;;;;;;5054440;28;20534;-42
2022/12/21 00:38:36;;;;;;;5.60;4.20;;;10.10;99.90;;;;;;5054860;28;20515;-43
2022/12/21 00:41:04;;;;;;;4.97;4.30;;;10.20;99.90;;;;;;5054610;28;20159;-43
2022/12/21 00:43:32;;;;;;;4.85;4.20;;;10.10;99.90;;;;;;5054750;28;20216;-42
2022/12/21 00:45:58;;;;;;;6.82;4.65;;;10.10;99.90;;;;;;5054535;28;20198;-43
2022/12/21 00:48:25;;;;;;;5.03;4.30;;;10.10;99.90;;;;;;5054397;28;20623;-43
2022/12/21 00:50:51;;;;;;;5.45;4.47;;;10.10;99.90;;;;;;5054408;28;20167;-44
2022/12/21 00:53:17;;;;;;;4.85;4.35;;;10.00;99.90;;;;;;5054515;28;20213;-43
2022/12/21 00:55:56;;;;;;;5.55;4.65;;;10.00;99.90;;;;;;5054618;28;20187;-50
2022/12/21 00:58:23;;;;;;;4.60;4.18;;;9.90;99.90;;;;;;5054232;28;20502;-50
2022/12/21 01:00:49;;;;;;;5.63;4.40;;;9.90;99.90;;;;;;5053922;28;20210;-50
2022/12/21 01:03:14;;;;;;;5.45;4.85;;;10.00;99.90;;;;;;5053581;28;20558;-52
2022/12/21 01:05:40;;;;;;;7.38;4.97;;;10.00;99.90;;;;;;5053091;28;20194;-44
2022/12/21 01:08:07;;;;;;;5.63;5.00;;;10.00;99.90;;;;;;5053701;28;20294;-49
2022/12/21 01:10:33;;;;;;;8.90;5.07;;;10.00;99.90;;;;;;5054181;28;20210;-53
2022/12/21 01:12:59;;;;;;;5.95;4.63;;;10.00;99.90;;;;;;5052329;28;20182;-50
2022/12/21 01:15:24;;;;;;;5.38;4.88;;;10.10;99.90;;;;;;5053886;28;20681;-52
2022/12/21 01:17:50;;;;;;;5.68;4.53;;;9.90;99.90;;;;;;5053802;28;20622;-51
2022/12/21 01:20:16;;;;;;;5.60;4.97;;;9.90;99.90;;;;;;5053750;28;20176;-50
2022/12/21 01:22:41;;;;;;;7.57;5.22;;;10.00;99.90;;;;;;5054395;28;20176;-53
2022/12/21 01:25:08;;;;;;;7.25;5.88;;;9.90;99.90;;;;;;5053654;28;20195;-52
2022/12/21 01:27:34;;;;;;;7.10;6.30;;;9.90;99.90;;;;;;5053897;28;20186;-50
2022/12/21 01:29:59;;;;;;;7.63;6.50;;;9.90;99.90;;;;;;5053571;28;20170;-52
2022/12/21 01:32:25;;;;;;;9.48;6.63;;;9.90;99.90;;;;;;5053571;28;20194;-53
2022/12/21 01:34:50;;;;;;;8.07;6.25;;;10.00;99.90;;;;;;5053425;28;20209;-51
2022/12/21 01:37:16;;;;;;;9.50;6.70;;;10.00;99.90;;;;;;5053821;28;20171;-53
2022/12/21 01:39:41;;;;;;;9.25;7.55;;;9.90;99.90;;;;;;5053979;28;20167;-50
2022/12/21 01:42:12;;;;;;;11.98;7.00;;;9.90;99.90;;;;;;5053359;28;20661;-52
2022/12/21 01:45:22;;;;;;;12.63;7.20;;;9.90;99.90;;;;;;5053584;28;20167;-53
2022/12/21 01:47:54;;;;;;;8.75;6.82;;;9.90;99.90;;;;;;5050313;28;20214;-50
2022/12/21 01:50:27;;;;;;;9.70;7.05;;;9.90;99.90;;;;;;5053299;28;20649;-53
2022/12/21 01:52:57;;;;;;;10.73;7.30;;;9.80;99.90;;;;;;5053144;28;20175;-53
2022/12/21 01:55:25;;;;;;;8.63;6.88;;;9.80;99.90;;;;;;5053106;28;20214;-52
2022/12/21 01:57:51;;;;;;;12.93;8.48;;;9.80;99.90;;;;;;5053144;28;20704;-50
2022/12/21 02:00:16;;;;;;;9.68;8.02;;;9.90;99.90;;;;;;5053110;28;20206;-52
2022/12/21 02:02:51;;;;;;;11.75;8.00;;;9.90;99.90;;;;;;5053171;28;20259;-52
2022/12/21 02:05:30;;;;;;;13.43;8.13;;;9.90;99.90;;;;;;5053053;28;20169;-52
2022/12/21 02:07:58;;;;;;;13.40;8.77;;;9.90;99.90;;;;;;5053092;28;20163;-49
2022/12/21 02:10:24;;;;;;;10.32;7.85;;;9.90;99.90;;;;;;5052859;28;20256;-50
2022/12/21 02:12:53;;;;;;;13.60;8.68;;;9.90;99.90;;;;;;5051584;28;20171;-53
2022/12/21 02:15:23;;;;;;;16.40;9.13;;;9.90;99.90;;;;;;5052781;28;20646;-49
2022/12/21 02:17:59;;;;;;;14.35;8.98;;;9.90;99.90;;;;;;5052755;28;20174;-53
2022/12/21 02:20:56;;;;;;;12.05;8.82;;;10.00;99.90;;;;;;5052628;28;20170;-52
2022/12/21 02:23:42;;;;;;;14.88;9.52;;;10.00;99.90;;;;;;5052672;28;20170;-51
2022/12/21 02:26:26;;;;;;;19.58;10.50;;;10.00;99.90;;;;;;5052952;28;20163;-49
2022/12/21 02:29:11;;;;;;;15.73;9.63;;;9.90;99.90;;;;;;5052619;28;20163;-53
2022/12/21 02:32:21;;;;;;;17.02;9.63;;;10.00;99.90;;;;;;5052356;28;20159;-50
2022/12/21 02:35:24;;;;;;;15.95;9.52;;;10.00;99.90;;;;;;5052400;28;20737;-52
2022/12/21 02:38:12;;;;;;;12.98;9.30;;;9.90;99.90;;;;;;5052345;28;20198;-53
2022/12/21 02:40:57;;;;;;;19.05;9.98;;;10.00;99.90;;;;;;5052459;28;20559;-51
2022/12/21 02:46:40;;;;;;;14.27;8.88;;;9.90;99.90;;;;;;5052451;28;20213;-53
2022/12/21 02:49:20;;;;;;;14.57;10.25;;;9.90;99.90;;;;;;5052108;28;20162;-49
2022/12/21 02:51:58;;;;;;;16.40;10.13;;;9.90;99.90;;;;;;5052053;28;20257;-53
2022/12/21 02:54:24;;;;;;;14.27;10.00;;;9.90;99.90;;;;;;5051909;28;20210;-52
2022/12/21 02:56:49;;;;;;;37.75;9.82;;;9.90;99.90;;;;;;5052064;28;20189;-52
2022/12/21 02:59:19;;;;;;;13.85;8.90;;;9.90;99.90;;;;;;5051988;28;20175;-53
2022/12/21 03:01:58;;;;;;;12.48;8.35;;;9.90;99.90;;;;;;5051744;28;20210;-52
2022/12/21 03:04:50;;;;;;;12.57;8.50;;;9.90;99.90;;;;;;5051822;28;20182;-53
2022/12/21 03:07:40;;;;;;;15.20;10.15;;;9.90;99.90;;;;;;5051940;28;20159;-49
2022/12/21 03:10:17;;;;;;;16.65;11.57;;;9.90;99.90;;;;;;5051646;28;20174;-44
2022/12/21 03:13:04;;;;;;;17.30;11.65;;;9.90;99.90;;;;;;5052217;28;20178;-44
2022/12/21 03:15:42;;;;;;;15.68;10.23;;;10.00;99.90;;;;;;5052034;28;20192;-45
2022/12/21 03:18:26;;;;;;;18.50;11.40;;;9.90;99.90;;;;;;5052125;28;20241;-43
2022/12/21 03:20:57;;;;;;;14.75;10.27;;;10.00;99.90;;;;;;5051743;28;20535;-43
2022/12/21 03:23:36;;;;;;;19.73;10.88;;;9.90;99.90;;;;;;5051981;28;20593;-43
2022/12/21 03:26:17;;;;;;;15.07;10.52;;;10.00;99.90;;;;;;5051809;28;20170;-43
2022/12/21 03:28:46;;;;;;;18.73;11.02;;;9.90;99.90;;;;;;5051213;28;20170;-43
2022/12/21 03:31:24;;;;;;;17.63;11.45;;;9.90;99.90;;;;;;5051899;28;20166;-42
2022/12/21 03:34:22;;;;;;;26.95;12.57;;;9.90;99.90;;;;;;5051478;28;20202;-43
2022/12/21 03:37:08;;;;;;;14.43;9.63;;;10.00;99.90;;;;;;5046938;28;20535;-46
2022/12/21 03:39:39;;;;;;;19.52;10.23;;;9.90;99.90;;;;;;5051501;28;20182;-43
2022/12/21 03:42:11;;;;;;;20.05;10.07;;;9.90;99.90;;;;;;5051580;28;20181;-45
2022/12/21 03:44:42;;;;;;;21.65;10.73;;;9.90;99.90;;;;;;5051468;28;20167;-43
2022/12/21 03:47:17;;;;;;;20.55;11.10;;;10.00;99.90;;;;;;5051904;28;20205;-44
2022/12/21 03:49:51;;;;;;;21.88;11.82;;;9.90;99.90;;;;;;5051402;28;20633;-42
2022/12/21 03:52:22;;;;;;;18.92;10.77;;;9.90;99.90;;;;;;5051366;28;20529;-43
2022/12/21 03:55:06;;;;;;;20.65;11.40;;;9.90;99.90;;;;;;5051266;28;20741;-43
2022/12/21 03:57:33;;;;;;;19.65;11.57;;;9.90;99.90;;;;;;5051385;28;20185;-43
2022/12/21 04:00:00;;;;;;;19.13;10.50;;;9.90;99.90;;;;;;5051561;28;20201;-43
2022/12/21 04:02:32;;;;;;;17.50;9.88;;;9.80;99.90;;;;;;5051096;28;20229;-43
2022/12/21 04:05:07;;;;;;;17.23;10.15;;;9.80;99.90;;;;;;5051180;28;20253;-44
2022/12/21 04:07:35;;;;;;;17.30;9.52;;;9.90;99.90;;;;;;5051232;28;20166;-47
2022/12/21 04:10:08;;;;;;;19.92;10.80;;;9.90;99.90;;;;;;5051206;28;20166;-50
2022/12/21 04:12:37;;;;;;;20.33;12.10;;;9.80;99.90;;;;;;5051176;28;20167;-45
2022/12/21 04:15:11;;;;;;;21.48;12.68;;;9.80;99.90;;;;;;5051011;28;20681;-45
2022/12/21 04:17:39;;;;;;;21.05;11.80;;;9.90;99.90;;;;;;5051687;28;20194;-44
2022/12/21 04:20:08;;;;;;;20.45;12.75;;;9.90;99.90;;;;;;5051133;28;20178;-45
2022/12/21 04:28:27;;;;;;;18.55;12.35;;;9.80;99.90;;;;;;5051749;28;20170;-44
2022/12/21 04:30:52;;;;;;;20.73;13.43;;;9.80;99.90;;;;;;5051020;28;20174;-46
2022/12/21 04:33:20;;;;;;;19.98;13.77;;;9.90;99.90;;;;;;5050852;28;20260;-44
2022/12/21 04:38:34;;;;;;;20.17;15.05;;;9.90;99.90;;;;;;5050850;28;20172;-46
2022/12/21 04:41:01;;;;;;;20.67;15.25;;;9.90;99.90;;;;;;5051303;28;20173;-43
2022/12/21 04:43:26;;;;;;;23.83;14.55;;;9.80;99.90;;;;;;5054317;28;20646;-46
2022/12/21 04:46:06;;;;;;;15.57;12.65;;;9.80;99.90;;;;;;5054310;28;20169;-43
2022/12/21 04:48:32;;;;;;;16.23;11.35;;;9.90;99.90;;;;;;5054434;28;20167;-43
2022/12/21 04:51:09;;;;;;;15.32;11.63;;;9.80;99.90;;;;;;5054475;28;20163;-43
2022/12/21 04:53:35;;;;;;;16.80;10.50;;;9.80;99.90;;;;;;5054506;28;20207;-45
2022/12/21 04:56:01;;;;;;;14.68;10.65;;;9.90;99.90;;;;;;5054013;28;20171;-46
2022/12/21 04:58:26;;;;;;;15.48;10.02;;;9.90;99.90;;;;;;5054436;28;20228;-42
2022/12/21 05:00:52;;;;;;;15.65;10.50;;;9.80;99.90;;;;;;5054192;28;20622;-48
2022/12/21 05:03:19;;;;;;;22.42;14.70;;;9.80;99.90;;;;;;5054252;28;20171;-42
2022/12/21 05:05:45;;;;;;;24.08;16.10;;;9.80;99.90;;;;;;5054410;28;20182;-42
2022/12/21 05:08:12;;;;;;;19.23;12.80;;;9.90;99.90;;;;;;5054465;28;20245;-42
2022/12/21 05:10:38;;;;;;;17.13;12.35;;;9.90;99.90;;;;;;5054494;28;20170;-43
2022/12/21 05:13:04;;;;;;;18.88;11.00;;;9.80;99.90;;;;;;5053797;28;20163;-42
2022/12/21 05:15:30;;;;;;;14.95;10.07;;;9.90;99.90;;;;;;5054097;28;20265;-43
2022/12/21 05:17:57;;;;;;;16.73;9.45;;;9.90;99.90;;;;;;5054071;28;20181;-42
2022/12/21 05:20:23;;;;;;;16.65;10.30;;;9.90;99.90;;;;;;5053790;28;20166;-42
2022/12/21 05:22:48;;;;;;;17.50;10.98;;;10.00;99.90;;;;;;5053704;28;20246;-44
2022/12/21 05:25:14;;;;;;;21.13;12.60;;;9.90;99.90;;;;;;5053717;28;20249;-46
2022/12/21 05:27:39;;;;;;;16.83;11.10;;;9.90;99.90;;;;;;5053953;28;20209;-45
2022/12/21 05:30:05;;;;;;;19.67;11.55;;;10.00;99.90;;;;;;5053600;28;20167;-43
2022/12/21 05:32:31;;;;;;;18.92;12.40;;;10.00;99.90;;;;;;5053503;28;20202;-45
2022/12/21 05:34:56;;;;;;;21.83;13.85;;;9.90;99.90;;;;;;5053474;28;20206;-46
2022/12/21 05:37:22;;;;;;;25.15;12.73;;;9.90;99.90;;;;;;5053618;28;20177;-47
2022/12/21 05:39:47;;;;;;;19.30;11.57;;;10.00;99.90;;;;;;5053408;28;20167;-42
2022/12/21 05:42:13;;;;;;;17.13;10.98;;;10.00;99.90;;;;;;5052943;28;20540;-47
2022/12/21 05:44:38;;;;;;;16.73;10.63;;;10.00;99.90;;;;;;5053722;28;20194;-43
2022/12/21 05:47:04;;;;;;;16.02;10.60;;;9.90;99.90;;;;;;5053273;28;20162;-45
2022/12/21 05:49:29;;;;;;;17.45;9.98;;;10.00;99.90;;;;;;5053274;28;20178;-43
2022/12/21 05:51:55;;;;;;;11.07;8.98;;;10.00;99.90;;;;;;5052650;28;20244;-43
2022/12/21 05:54:21;;;;;;;13.38;8.85;;;10.00;99.90;;;;;;5053123;28;20222;-43
2022/12/21 05:56:46;;;;;;;13.60;8.73;;;10.00;99.90;;;;;;5053122;28;20163;-44
2022/12/21 05:59:12;;;;;;;12.90;8.07;;;10.10;99.90;;;;;;5053340;28;20167;-43
2022/12/21 06:01:37;;;;;;;9.95;6.90;;;10.10;99.90;;;;;;5053141;28;20219;-43
2022/12/21 06:04:03;;;;;;;10.25;7.22;;;10.10;99.90;;;;;;5052869;28;20177;-46
2022/12/21 06:06:29;;;;;;;10.10;7.25;;;10.00;99.90;;;;;;5052797;28;20459;-47
2022/12/21 06:08:54;;;;;;;10.25;7.20;;;10.10;99.90;;;;;;5052681;28;20177;-43
2022/12/21 06:11:23;;;;;;;8.48;6.32;;;10.20;99.90;;;;;;5052414;28;20227;-43
2022/12/21 06:13:49;;;;;;;11.65;6.63;;;10.20;99.90;;;;;;5052423;28;20628;-46
2022/12/21 06:16:18;;;;;;;11.38;6.97;;;10.20;99.90;;;;;;5052643;28;20174;-49
2022/12/21 06:18:44;;;;;;;11.05;7.53;;;10.10;99.90;;;;;;5052696;28;20178;-43
2022/12/21 06:21:12;;;;;;;10.23;7.15;;;10.10;99.90;;;;;;5053046;28;20641;-48
2022/12/21 06:23:38;;;;;;;8.82;6.10;;;10.20;99.90;;;;;;5051803;28;20716;-52
2022/12/21 06:26:06;;;;;;;13.43;8.52;;;10.10;99.90;;;;;;5052393;28;20278;-48
2022/12/21 06:28:32;;;;;;;10.90;6.47;;;10.10;99.90;;;;;;5052150;28;20189;-47
2022/12/21 06:31:07;;;;;;;9.38;5.75;;;10.10;99.90;;;;;;5052633;28;20276;-49
2022/12/21 06:33:32;;;;;;;8.52;6.38;;;10.10;99.90;;;;;;5052443;28;20272;-48
2022/12/21 06:35:58;;;;;;;8.52;5.10;;;10.20;99.90;;;;;;5052066;28;20238;-45
2022/12/21 06:38:25;;;;;;;10.05;7.30;;;10.10;99.90;;;;;;5052414;28;20166;-44
2022/12/21 06:40:59;;;;;;;6.35;5.00;;;10.20;99.90;;;;;;5052180;28;20163;-49
2022/12/21 06:43:26;;;;;;;7.22;5.47;;;10.20;99.90;;;;;;5052254;28;20531;-44
2022/12/21 06:45:56;;;;;;;7.82;5.03;;;10.10;99.90;;;;;;5052135;28;20646;-50
2022/12/21 06:48:22;;;;;;;8.57;5.20;;;10.10;99.90;;;;;;5052391;28;20174;-49
2022/12/21 06:50:56;;;;;;;7.65;4.80;;;10.10;99.90;;;;;;5051984;28;20634;-46
2022/12/21 06:53:23;;;;;;;6.18;4.85;;;10.10;99.90;;;;;;5052061;28;20167;-47
2022/12/21 06:55:49;;;;;;;7.10;5.90;;;10.00;99.90;;;;;;5052093;28;20163;-46
2022/12/21 06:58:15;;;;;;;9.00;6.95;;;10.00;99.90;;;;;;5051974;28;20159;-45
2022/12/21 07:00:41;;;;;;;12.25;8.40;;;9.90;99.90;;;;;;5052089;28;20206;-43
2022/12/21 07:03:08;;;;;;;12.85;8.70;;;10.00;99.90;;;;;;5052144;28;20174;-44
2022/12/21 07:05:34;;;;;;;14.90;8.98;;;10.00;99.90;;;;;;5051166;28;20167;-43
2022/12/21 07:08:00;;;;;;;17.70;9.85;;;10.00;99.90;;;;;;5052012;28;20680;-45
2022/12/21 07:10:25;;;;;;;20.95;8.68;;;10.00;99.90;;;;;;5051804;28;20170;-44
2022/12/21 07:12:51;;;;;;;14.77;8.23;;;10.00;99.90;;;;;;5051707;28;20167;-47
2022/12/21 07:15:17;;;;;;;11.95;7.00;;;10.10;99.90;;;;;;5051533;28;20297;-43
2022/12/21 07:17:42;;;;;;;10.30;6.32;;;10.00;99.90;;;;;;5051401;28;20170;-45
2022/12/21 07:20:08;;;;;;;6.90;4.85;;;10.00;99.90;;;;;;5051692;28;20186;-46
2022/12/21 07:22:34;;;;;;;7.65;5.30;;;10.10;99.90;;;;;;5050684;28;20171;-44
2022/12/21 07:25:00;;;;;;;8.05;4.25;;;10.00;99.90;;;;;;5051574;28;20193;-47
2022/12/21 07:27:25;;;;;;;6.28;4.75;;;10.00;99.90;;;;;;5051837;28;20174;-47
2022/12/21 07:29:51;;;;;;;8.00;4.47;;;10.00;99.90;;;;;;5051623;28;20253;-46
2022/12/21 07:32:16;;;;;;;7.00;4.53;;;10.10;99.90;;;;;;5051395;28;20166;-43
2022/12/21 07:34:42;;;;;;;6.13;4.25;;;10.00;99.90;;;;;;5050874;28;20191;-45
2022/12/21 07:37:07;;;;;;;8.10;5.65;;;10.00;99.90;;;;;;5051258;28;20159;-43
2022/12/21 07:39:33;;;;;;;8.68;4.03;;;10.00;99.90;;;;;;5051384;28;20692;-49
2022/12/21 07:41:58;;;;;;;7.07;4.50;;;10.00;99.90;;;;;;5051569;28;20194;-46
2022/12/21 07:44:24;;;;;;;5.82;4.00;;;10.00;99.90;;;;;;5051147;28;20638;-49
2022/12/21 07:46:51;;;;;;;5.97;4.00;;;10.00;99.90;;;;;;5051061;28;20171;-44
2022/12/21 07:49:16;;;;;;;7.25;4.50;;;10.10;99.90;;;;;;5051364;28;20181;-46
2022/12/21 07:51:42;;;;;;;4.72;4.13;;;10.00;99.90;;;;;;5050130;28;20290;-46
2022/12/21 07:54:07;;;;;;;7.95;4.40;;;10.10;99.90;;;;;;5051325;28;20214;-44
2022/12/21 07:56:33;;;;;;;9.45;4.32;;;10.10;99.90;;;;;;5051350;28;20178;-45
2022/12/21 07:59:00;;;;;;;10.50;4.22;;;10.00;99.90;;;;;;5051482;28;20202;-45
2022/12/21 08:01:26;;;;;;;7.38;4.72;;;10.00;99.90;;;;;;5051031;28;20348;-48
2022/12/21 08:03:53;;;;;;;4.88;4.10;;;10.10;99.90;;;;;;5051424;28;20174;-46
2022/12/21 08:06:19;;;;;;;14.35;4.75;;;10.00;99.90;;;;;;5051082;28;20172;-44
2022/12/21 08:08:45;;;;;;;10.10;4.88;;;10.00;99.90;;;;;;5050711;28;20166;-46
2022/12/21 08:11:13;;;;;;;8.15;4.38;;;10.00;99.90;;;;;;5050073;28;20240;-43
2022/12/21 08:13:41;;;;;;;9.63;4.95;;;10.10;99.90;;;;;;5049636;28;20199;-49
2022/12/21 08:16:08;;;;;;;7.35;4.93;;;9.90;99.90;;;;;;5051785;28;20182;-45
2022/12/21 08:18:35;;;;;;;9.38;4.53;;;10.00;99.90;;;;;;5052803;28;20256;-43
2022/12/21 08:21:01;;;;;;;15.18;4.50;;;10.00;99.90;;;;;;5051555;28;20174;-46
2022/12/21 08:23:27;;;;;;;13.35;4.53;;;9.90;99.90;;;;;;5053176;28;20171;-44
2022/12/21 08:25:52;;;;;;;13.38;4.53;;;9.90;99.90;;;;;;5052842;28;20252;-49
2022/12/21 08:28:18;;;;;;;14.82;5.50;;;9.90;99.90;;;;;;5052917;28;20266;-45
2022/12/21 08:30:44;;;;;;;13.57;5.63;;;9.80;99.90;;;;;;5052178;28;20175;-44
2022/12/21 08:33:09;;;;;;;21.25;5.60;;;10.00;99.90;;;;;;5052740;28;20175;-47
2022/12/21 08:35:36;;;;;;;16.88;5.07;;;9.90;99.90;;;;;;5052219;28;20209;-47
2022/12/21 08:38:01;;;;;;;21.70;5.30;;;9.90;99.90;;;;;;5052815;28;20170;-46
2022/12/21 08:40:27;;;;;;;8.35;4.22;;;9.90;99.90;;;;;;5052760;28;20162;-48
2022/12/21 08:42:53;;;;;;;6.55;4.00;;;9.90;99.90;;;;;;5052995;28;20162;-46
2022/12/21 08:45:19;;;;;;;9.52;5.07;;;9.80;99.90;;;;;;5052458;28;20253;-43
2022/12/21 08:47:47;;;;;;;7.45;4.93;;;9.90;99.90;;;;;;5052424;28;20613;-43
2022/12/21 08:50:12;;;;;;;8.05;5.05;;;9.90;99.90;;;;;;5052577;28;20531;-49
2022/12/21 08:52:38;;;;;;;7.80;5.22;;;9.90;99.90;;;;;;5052766;28;20175;-46
2022/12/21 08:55:03;;;;;;;7.40;5.93;;;10.00;99.90;;;;;;5052237;28;20222;-47
2022/12/21 08:57:29;;;;;;;7.60;5.70;;;10.00;99.90;;;;;;5052361;28;20167;-46
2022/12/21 08:59:54;;;;;;;7.82;6.22;;;10.10;99.90;;;;;;5052345;28;20203;-46
2022/12/21 09:02:20;;;;;;;10.55;6.85;;;10.10;99.90;;;;;;5052311;28;20242;-51
2022/12/21 09:04:45;;;;;;;9.38;7.10;;;10.00;99.90;;;;;;5052189;28;20171;-52
2022/12/21 09:07:11;;;;;;;11.35;7.53;;;10.10;99.90;;;;;;5052598;28;20579;-48
2022/12/21 09:09:36;;;;;;;10.82;6.93;;;10.00;99.90;;;;;;5052465;28;20560;-49
2022/12/21 09:12:02;;;;;;;11.73;7.88;;;9.90;99.90;;;;;;5052129;28;20162;-45
2022/12/21 09:14:28;;;;;;;11.70;7.55;;;10.00;99.90;;;;;;5050810;28;20215;-45
2022/12/21 09:16:54;;;;;;;12.85;8.50;;;10.00;99.90;;;;;;5052085;28;20171;-55
2022/12/21 09:19:20;;;;;;;12.13;7.35;;;10.10;99.90;;;;;;5051778;28;20247;-49
2022/12/21 09:21:46;;;;;;;12.80;7.72;;;10.00;99.90;;;;;;5051936;28;20668;-47
2022/12/21 09:24:11;;;;;;;13.65;9.07;;;10.00;99.90;;;;;;5051856;28;20174;-41
2022/12/21 09:26:37;;;;;;;13.65;8.30;;;9.90;99.90;;;;;;5051464;28;20534;-52
2022/12/21 09:29:02;;;;;;;15.77;9.00;;;9.90;99.90;;;;;;5051489;28;20249;-43
2022/12/21 09:31:28;;;;;;;21.75;10.35;;;10.00;99.90;;;;;;5051778;28;20178;-44
2022/12/21 09:33:55;;;;;;;16.88;9.90;;;9.80;99.90;;;;;;5051590;28;20210;-44
2022/12/21 09:36:21;;;;;;;18.55;10.20;;;9.80;99.90;;;;;;5051835;28;20170;-42
2022/12/21 09:38:47;;;;;;;19.25;12.18;;;9.70;99.90;;;;;;5051571;28;20573;-50
2022/12/21 09:41:37;;;;;;;22.92;12.85;;;8.60;99.90;;;;;;5051357;28;20224;-48
2022/12/21 09:44:22;;;;;;;25.33;13.80;;;9.60;99.90;;;;;;5051808;28;20185;-43
2022/12/21 09:46:51;;;;;;;23.08;13.05;;;9.70;99.90;;;;;;5051308;28;20225;-44
2022/12/21 09:49:34;;;;;;;26.58;14.20;;;9.60;99.90;;;;;;5051577;28;20180;-45
2022/12/21 09:52:02;;;;;;;24.25;13.35;;;9.50;99.90;;;;;;5051551;28;20171;-49
2022/12/21 09:54:43;;;;;;;26.38;14.13;;;9.50;99.90;;;;;;5051496;28;20699;-52
2022/12/21 09:57:13;;;;;;;24.30;13.90;;;9.40;99.90;;;;;;5052004;28;20162;-46
2022/12/21 09:59:39;;;;;;;23.83;13.50;;;9.40;99.90;;;;;;5051631;28;20198;-50
2022/12/21 10:02:26;;;;;;;27.05;13.95;;;9.40;99.90;;;;;;5051182;28;20214;-45
2022/12/21 10:05:15;;;;;;;28.00;14.38;;;9.40;99.90;;;;;;5051168;28;20178;-43
2022/12/21 10:08:25;;;;;;;31.35;13.82;;;9.40;99.90;;;;;;5051468;28;20167;-44
2022/12/21 10:11:16;;;;;;;25.45;12.80;;;9.30;99.90;;;;;;5042602;28;20260;-43
2022/12/21 10:13:54;;;;;;;23.23;12.77;;;9.40;99.90;;;;;;5049327;28;20199;-42
2022/12/21 10:16:28;;;;;;;23.40;12.43;;;9.50;99.90;;;;;;5051261;28;20587;-47
2022/12/21 10:19:00;;;;;;;19.02;11.18;;;9.50;99.90;;;;;;5050689;28;20170;-44
2022/12/21 10:21:59;;;;;;;21.17;11.52;;;9.60;99.90;;;;;;5050456;28;20179;-44
2022/12/21 10:24:30;;;;;;;19.23;10.30;;;9.70;99.90;;;;;;5048135;28;20206;-46
2022/12/21 10:27:02;;;;;;;20.90;11.45;;;9.70;99.90;;;;;;5050175;28;20166;-43
2022/12/21 10:29:37;;;;;;;18.13;10.40;;;9.70;99.90;;;;;;5050134;28;20173;-47
2022/12/21 10:32:04;;;;;;;19.58;10.23;;;9.70;99.90;;;;;;5050134;28;20174;-46
2022/12/21 10:34:35;;;;;;;15.75;8.73;;;9.60;99.90;;;;;;5050020;28;20210;-46
2022/12/21 10:37:11;;;;;;;19.55;10.75;;;9.60;99.90;;;;;;5050122;28;20170;-49
2022/12/21 10:39:36;;;;;;;18.45;10.82;;;9.80;99.90;;;;;;5050383;28;20228;-46
2022/12/21 10:42:18;;;;;;;18.92;10.15;;;9.80;99.90;;;;;;5050597;28;20174;-48
2022/12/21 10:44:43;;;;;;;20.33;9.95;;;9.80;99.90;;;;;;5050482;28;20202;-43
2022/12/21 10:47:17;;;;;;;17.75;9.18;;;9.80;99.90;;;;;;5050875;28;20198;-44
2022/12/21 10:49:53;;;;;;;17.90;9.10;;;9.80;99.90;;;;;;5050611;28;20582;-44
2022/12/21 10:52:41;;;;;;;21.25;9.23;;;9.90;99.90;;;;;;5052160;28;20232;-47
2022/12/21 10:55:25;;;;;;;16.90;8.13;;;9.90;99.90;;;;;;5052529;28;20206;-46
2022/12/21 10:58:02;;;;;;;17.83;8.15;;;9.90;99.90;;;;;;5052233;28;20566;-44
2022/12/21 11:00:28;;;;;;;18.00;8.30;;;10.00;99.90;;;;;;5052244;28;20261;-46
2022/12/21 11:02:56;;;;;;;18.50;7.35;;;10.00;99.90;;;;;;5051717;28;20692;-44
2022/12/21 11:05:29;;;;;;;13.90;6.82;;;10.00;99.90;;;;;;5051770;28;20173;-44
2022/12/21 11:08:13;;;;;;;8.70;5.45;;;10.00;99.90;;;;;;5051679;28;20654;-45
2022/12/21 11:10:44;;;;;;;14.23;5.13;;;10.20;99.90;;;;;;5052144;28;20628;-43
2022/12/21 11:13:12;;;;;;;14.93;4.43;;;10.20;99.90;;;;;;5051922;28;20173;-46
2022/12/21 11:15:38;;;;;;;12.27;4.60;;;10.20;99.90;;;;;;5051989;28;20328;-44
2022/12/21 11:18:04;;;;;;;13.38;4.88;;;10.10;99.90;;;;;;5051533;28;20159;-44
2022/12/21 11:20:31;;;;;;;11.43;4.70;;;10.20;99.90;;;;;;5051651;28;20261;-44
2022/12/21 11:23:01;;;;;;;12.65;5.30;;;10.20;99.90;;;;;;5051569;28;20166;-45
2022/12/21 11:25:28;;;;;;;11.75;5.07;;;10.20;99.90;;;;;;5051878;28;20163;-45
2022/12/21 11:28:00;;;;;;;15.43;5.13;;;10.20;99.90;;;;;;5051444;28;20178;-43
2022/12/21 11:30:31;;;;;;;11.43;4.30;;;10.30;99.90;;;;;;5051807;28;20169;-44
2022/12/21 11:32:58;;;;;;;13.60;4.40;;;10.30;99.90;;;;;;5051547;28;20205;-43
2022/12/21 11:35:26;;;;;;;8.85;3.78;;;10.20;99.90;;;;;;5051404;28;20210;-44
2022/12/21 11:37:54;;;;;;;12.48;4.45;;;10.20;99.90;;;;;;5051513;28;20167;-44
2022/12/21 11:40:22;;;;;;;10.95;3.58;;;10.20;99.90;;;;;;5051443;28;20159;-43
2022/12/21 11:43:00;;;;;;;9.45;4.05;;;10.20;99.90;;;;;;5051506;28;20309;-43
2022/12/21 11:45:51;;;;;;;11.10;3.80;;;10.10;99.90;;;;;;5051400;28;20257;-43
2022/12/21 11:48:42;;;;;;;9.52;3.70;;;10.10;99.90;;;;;;5051437;28;20571;-43
2022/12/21 11:51:20;;;;;;;8.15;3.13;;;10.00;99.90;;;;;;5054005;28;20170;-42
2022/12/21 11:54:00;;;;;;;10.55;3.72;;;10.00;99.90;;;;;;5055421;28;20214;-43
2022/12/21 11:56:44;;;;;;;10.63;3.17;;;10.00;99.90;;;;;;5055355;28;20630;-43
2022/12/21 11:59:36;;;;;;;11.05;3.53;;;10.00;99.90;;;;;;5055559;28;20177;-43
2022/12/21 12:02:30;;;;;;;8.88;3.97;;;10.10;99.90;;;;;;5053798;28;20229;-43
2022/12/21 12:05:13;;;;;;;7.47;3.05;;;10.10;99.90;;;;;;5054979;28;20171;-43
2022/12/21 12:08:00;;;;;;;6.38;2.90;;;10.10;99.90;;;;;;5055522;28;20631;-43
2022/12/21 12:11:06;;;;;;;7.45;2.85;;;10.20;99.90;;;;;;5054901;28;20194;-43
2022/12/21 12:14:10;;;;;;;5.45;3.05;;;10.20;99.90;;;;;;5054847;28;20589;-43
2022/12/21 12:17:00;;;;;;;6.47;2.60;;;10.20;99.90;;;;;;5054200;28;20169;-43
2022/12/21 12:19:42;;;;;;;8.40;3.28;;;10.20;99.90;;;;;;5054896;28;20163;-43
2022/12/21 12:22:22;;;;;;;7.43;3.33;;;10.10;99.90;;;;;;5055126;28;20166;-43
2022/12/21 12:24:55;;;;;;;5.07;2.40;;;10.20;99.90;;;;;;5054498;28;20272;-43
2022/12/21 12:27:44;;;;;;;5.38;3.08;;;10.30;99.90;;;;;;5054884;28;20658;-43
2022/12/21 12:30:14;;;;;;;6.93;2.72;;;10.30;99.90;;;;;;5055165;28;20520;-46
2022/12/21 12:32:52;;;;;;;5.00;2.33;;;10.30;99.90;;;;;;5055128;28;20631;-43
2022/12/21 12:35:43;;;;;;;3.97;2.50;;;10.30;99.90;;;;;;5054361;28;20692;-43
2022/12/21 12:38:19;;;;;;;6.45;2.85;;;10.40;99.90;;;;;;5054842;28;20170;-44
2022/12/21 12:40:52;;;;;;;5.65;3.17;;;10.40;99.90;;;;;;5054293;28;20688;-43
2022/12/21 12:43:49;;;;;;;5.72;2.90;;;10.40;99.90;;;;;;5054238;28;20171;-43
2022/12/21 12:46:45;;;;;;;6.10;3.25;;;10.40;99.90;;;;;;5054494;28;20257;-43
2022/12/21 12:49:25;;;;;;;3.70;2.90;;;10.40;99.90;;;;;;5054271;28;20568;-42
2022/12/21 12:52:22;;;;;;;6.50;3.22;;;10.30;99.90;;;;;;5054295;28;20167;-43
2022/12/21 12:55:34;;;;;;;7.10;2.75;;;10.40;99.90;;;;;;5053974;28;20202;-43
2022/12/21 12:58:29;;;;;;;5.28;3.60;;;10.40;99.90;;;;;;5032175;28;20159;-43
2022/12/21 13:01:08;;;;;;;6.80;3.85;;;10.40;99.90;;;;;;5054188;28;20205;-47
2022/12/21 13:03:52;;;;;;;6.85;4.40;;;10.50;99.90;;;;;;5052918;28;20637;-45
2022/12/21 13:06:36;;;;;;;9.05;4.13;;;10.50;99.90;;;;;;5054071;28;20622;-45
2022/12/21 13:09:10;;;;;;;9.75;3.40;;;10.50;99.90;;;;;;5054087;28;20250;-46
2022/12/21 13:12:11;;;;;;;9.68;4.28;;;10.40;99.90;;;;;;5053505;28;20171;-47
2022/12/21 13:15:07;;;;;;;6.85;3.05;;;10.40;99.90;;;;;;5048165;28;20217;-47
2022/12/21 13:18:03;;;;;;;19.05;10.25;;;10.40;99.90;;;;;;5053098;28;20174;-43
2022/12/21 13:20:30;;;;;;;7.63;3.30;;;10.40;99.90;;;;;;5053913;28;20159;-46